sensor_id;sensor_type;location;lat;lon;timestamp;P1;durP1;ratioP1;P2;durP2;ratioP2
7047;SDS011;3565;53.254;10.352;2023-04-24T00:01:53;7.17;;;6.03;;
7047;SDS011;3565;53.254;10.352;2023-04-24T00:04:22;6.70;;;6.00;;
7047;SDS011;3565;53.254;10.352;2023-04-24T00:06:53;6.67;;;5.97;;
7047;SDS011;3565;53.254;10.352;2023-04-24T00:09:24;6.50;;;5.90;;
7047;SDS011;3565;53.254;10.352;2023-04-24T00:11:53;6.03;;;5.47;;
7047;SDS011;3565;53.254;10.352;2023-04-24T00:14:23;6.47;;;5.70;;
7047;SDS011;3565;53.254;10.352;2023-04-24T00:16:52;6.20;;;5.60;;
7047;SDS011;3565;53.254;10.352;2023-04-24T00:19:21;6.60;;;5.90;;
7047;SDS011;3565;53.254;10.352;2023-04-24T00:21:59;6.67;;;5.73;;
7047;SDS011;3565;53.254;10.352;2023-04-24T00:24:29;6.40;;;5.80;;
7047;SDS011;3565;53.254;10.352;2023-04-24T00:26:58;5.87;;;5.30;;
7047;SDS011;3565;53.254;10.352;2023-04-24T00:29:28;6.10;;;5.50;;
7047;SDS011;3565;53.254;10.352;2023-04-24T00:31:58;6.47;;;5.70;;
7047;SDS011;3565;53.254;10.352;2023-04-24T00:34:26;6.80;;;5.70;;
7047;SDS011;3565;53.254;10.352;2023-04-24T00:37:05;6.40;;;5.80;;
7047;SDS011;3565;53.254;10.352;2023-04-24T00:39:34;6.60;;;5.90;;
7047;SDS011;3565;53.254;10.352;2023-04-24T00:42:12;6.63;;;5.73;;
7047;SDS011;3565;53.254;10.352;2023-04-24T00:47:19;5.87;;;5.27;;
7047;SDS011;3565;53.254;10.352;2023-04-24T00:49:48;6.87;;;6.03;;
7047;SDS011;3565;53.254;10.352;2023-04-24T00:52:27;6.43;;;5.70;;
7047;SDS011;3565;53.254;10.352;2023-04-24T00:54:57;5.87;;;5.27;;
7047;SDS011;3565;53.254;10.352;2023-04-24T00:57:28;6.23;;;5.63;;
7047;SDS011;3565;53.254;10.352;2023-04-24T00:59:58;6.87;;;6.17;;
7047;SDS011;3565;53.254;10.352;2023-04-24T01:05:05;7.03;;;6.33;;
7047;SDS011;3565;53.254;10.352;2023-04-24T01:07:36;6.90;;;6.20;;
7047;SDS011;3565;53.254;10.352;2023-04-24T01:10:14;6.17;;;5.57;;
7047;SDS011;3565;53.254;10.352;2023-04-24T01:12:44;5.20;;;4.70;;
7047;SDS011;3565;53.254;10.352;2023-04-24T01:15:23;5.27;;;4.60;;
7047;SDS011;3565;53.254;10.352;2023-04-24T01:17:52;4.77;;;4.27;;
7047;SDS011;3565;53.254;10.352;2023-04-24T01:20:30;4.50;;;3.83;;
7047;SDS011;3565;53.254;10.352;2023-04-24T01:23:00;4.30;;;3.90;;
7047;SDS011;3565;53.254;10.352;2023-04-24T01:25:30;4.60;;;4.20;;
7047;SDS011;3565;53.254;10.352;2023-04-24T01:27:59;4.73;;;3.80;;
7047;SDS011;3565;53.254;10.352;2023-04-24T01:30:29;4.20;;;3.80;;
7047;SDS011;3565;53.254;10.352;2023-04-24T01:32:59;4.20;;;3.77;;
7047;SDS011;3565;53.254;10.352;2023-04-24T01:35:28;4.23;;;3.63;;
7047;SDS011;3565;53.254;10.352;2023-04-24T01:38:07;3.90;;;3.60;;
7047;SDS011;3565;53.254;10.352;2023-04-24T01:43:13;3.57;;;3.27;;
7047;SDS011;3565;53.254;10.352;2023-04-24T01:45:42;4.90;;;3.23;;
7047;SDS011;3565;53.254;10.352;2023-04-24T01:48:21;3.43;;;2.93;;
7047;SDS011;3565;53.254;10.352;2023-04-24T01:53:28;3.63;;;3.10;;
7047;SDS011;3565;53.254;10.352;2023-04-24T01:55:57;3.40;;;3.10;;
7047;SDS011;3565;53.254;10.352;2023-04-24T01:58:26;3.87;;;3.20;;
7047;SDS011;3565;53.254;10.352;2023-04-24T02:03:33;3.47;;;3.17;;
7047;SDS011;3565;53.254;10.352;2023-04-24T02:06:03;3.10;;;2.80;;
7047;SDS011;3565;53.254;10.352;2023-04-24T02:08:32;3.30;;;3.00;;
7047;SDS011;3565;53.254;10.352;2023-04-24T02:11:10;3.23;;;2.93;;
7047;SDS011;3565;53.254;10.352;2023-04-24T02:16:16;3.70;;;2.90;;
7047;SDS011;3565;53.254;10.352;2023-04-24T02:18:45;3.43;;;3.13;;
7047;SDS011;3565;53.254;10.352;2023-04-24T02:21:25;3.67;;;3.00;;
7047;SDS011;3565;53.254;10.352;2023-04-24T02:23:54;3.50;;;3.10;;
7047;SDS011;3565;53.254;10.352;2023-04-24T02:29:00;2.73;;;2.53;;
7047;SDS011;3565;53.254;10.352;2023-04-24T02:31:29;2.93;;;2.67;;
7047;SDS011;3565;53.254;10.352;2023-04-24T02:33:58;3.30;;;3.00;;
7047;SDS011;3565;53.254;10.352;2023-04-24T02:36:27;3.23;;;2.80;;
7047;SDS011;3565;53.254;10.352;2023-04-24T02:39:06;3.70;;;3.03;;
7047;SDS011;3565;53.254;10.352;2023-04-24T02:44:12;3.40;;;2.80;;
7047;SDS011;3565;53.254;10.352;2023-04-24T02:46:41;3.00;;;2.80;;
7047;SDS011;3565;53.254;10.352;2023-04-24T02:49:19;2.97;;;2.77;;
7047;SDS011;3565;53.254;10.352;2023-04-24T02:54:25;2.77;;;2.57;;
7047;SDS011;3565;53.254;10.352;2023-04-24T02:56:54;2.50;;;2.30;;
7047;SDS011;3565;53.254;10.352;2023-04-24T02:59:23;2.40;;;2.20;;
7047;SDS011;3565;53.254;10.352;2023-04-24T03:02:02;3.03;;;2.63;;
7047;SDS011;3565;53.254;10.352;2023-04-24T03:07:09;2.67;;;2.47;;
7047;SDS011;3565;53.254;10.352;2023-04-24T03:09:38;2.33;;;2.13;;
7047;SDS011;3565;53.254;10.352;2023-04-24T03:12:16;2.93;;;2.40;;
7047;SDS011;3565;53.254;10.352;2023-04-24T03:17:22;2.60;;;2.40;;
7047;SDS011;3565;53.254;10.352;2023-04-24T03:19:51;2.60;;;2.40;;
7047;SDS011;3565;53.254;10.352;2023-04-24T03:22:30;2.90;;;2.67;;
7047;SDS011;3565;53.254;10.352;2023-04-24T03:25:00;3.43;;;2.20;;
7047;SDS011;3565;53.254;10.352;2023-04-24T03:27:29;2.47;;;2.27;;
7047;SDS011;3565;53.254;10.352;2023-04-24T03:29:58;2.50;;;2.30;;
7047;SDS011;3565;53.254;10.352;2023-04-24T03:32:27;2.50;;;2.30;;
7047;SDS011;3565;53.254;10.352;2023-04-24T03:37:33;2.40;;;2.20;;
7047;SDS011;3565;53.254;10.352;2023-04-24T03:40:03;2.67;;;2.10;;
7047;SDS011;3565;53.254;10.352;2023-04-24T03:45:11;2.37;;;2.17;;
7047;SDS011;3565;53.254;10.352;2023-04-24T03:47:41;2.13;;;2.03;;
7047;SDS011;3565;53.254;10.352;2023-04-24T03:50:19;3.07;;;2.10;;
7047;SDS011;3565;53.254;10.352;2023-04-24T03:55:25;2.33;;;2.13;;
7047;SDS011;3565;53.254;10.352;2023-04-24T03:57:54;2.30;;;2.10;;
7047;SDS011;3565;53.254;10.352;2023-04-24T04:00:35;2.10;;;2.00;;
7047;SDS011;3565;53.254;10.352;2023-04-24T04:03:06;2.40;;;2.20;;
7047;SDS011;3565;53.254;10.352;2023-04-24T04:08:12;3.63;;;2.30;;
7047;SDS011;3565;53.254;10.352;2023-04-24T04:13:18;2.30;;;2.10;;
7047;SDS011;3565;53.254;10.352;2023-04-24T04:15:47;2.20;;;2.00;;
7047;SDS011;3565;53.254;10.352;2023-04-24T04:18:26;2.37;;;2.17;;
7047;SDS011;3565;53.254;10.352;2023-04-24T04:23:31;2.90;;;2.20;;
7047;SDS011;3565;53.254;10.352;2023-04-24T04:26:01;2.10;;;2.00;;
7047;SDS011;3565;53.254;10.352;2023-04-24T04:28:31;1.90;;;1.80;;
7047;SDS011;3565;53.254;10.352;2023-04-24T04:31:00;2.13;;;2.00;;
7047;SDS011;3565;53.254;10.352;2023-04-24T04:33:29;2.93;;;2.10;;
7047;SDS011;3565;53.254;10.352;2023-04-24T04:35:58;2.03;;;1.93;;
7047;SDS011;3565;53.254;10.352;2023-04-24T04:38:27;2.13;;;1.97;;
7047;SDS011;3565;53.254;10.352;2023-04-24T04:41:06;2.17;;;2.00;;
7047;SDS011;3565;53.254;10.352;2023-04-24T04:46:12;2.00;;;1.90;;
7047;SDS011;3565;53.254;10.352;2023-04-24T04:48:41;2.20;;;1.90;;
7047;SDS011;3565;53.254;10.352;2023-04-24T04:51:22;2.00;;;1.90;;
7047;SDS011;3565;53.254;10.352;2023-04-24T04:56:29;2.10;;;2.00;;
7047;SDS011;3565;53.254;10.352;2023-04-24T04:58:58;2.67;;;2.20;;
7047;SDS011;3565;53.254;10.352;2023-04-24T05:01:26;2.23;;;2.03;;
7047;SDS011;3565;53.254;10.352;2023-04-24T05:06:33;3.00;;;1.70;;
7047;SDS011;3565;53.254;10.352;2023-04-24T05:09:01;2.10;;;2.00;;
7047;SDS011;3565;53.254;10.352;2023-04-24T05:14:08;1.90;;;1.80;;
7047;SDS011;3565;53.254;10.352;2023-04-24T05:16:39;1.93;;;1.83;;
7047;SDS011;3565;53.254;10.352;2023-04-24T05:19:20;2.27;;;2.07;;
7047;SDS011;3565;53.254;10.352;2023-04-24T05:24:26;2.50;;;1.90;;
7047;SDS011;3565;53.254;10.352;2023-04-24T05:26:55;2.00;;;1.80;;
7047;SDS011;3565;53.254;10.352;2023-04-24T05:29:25;1.70;;;1.60;;
7047;SDS011;3565;53.254;10.352;2023-04-24T05:34:31;1.90;;;1.73;;
7047;SDS011;3565;53.254;10.352;2023-04-24T05:37:00;3.47;;;2.10;;
7047;SDS011;3565;53.254;10.352;2023-04-24T05:39:29;2.90;;;1.93;;
7047;SDS011;3565;53.254;10.352;2023-04-24T05:42:08;1.90;;;1.80;;
7047;SDS011;3565;53.254;10.352;2023-04-24T05:47:14;2.30;;;2.10;;
7047;SDS011;3565;53.254;10.352;2023-04-24T05:49:43;2.53;;;2.00;;
7047;SDS011;3565;53.254;10.352;2023-04-24T05:52:12;2.73;;;1.73;;
7047;SDS011;3565;53.254;10.352;2023-04-24T05:57:19;4.00;;;2.23;;
7047;SDS011;3565;53.254;10.352;2023-04-24T05:59:49;2.10;;;2.00;;
7047;SDS011;3565;53.254;10.352;2023-04-24T06:02:27;1.93;;;1.80;;
7047;SDS011;3565;53.254;10.352;2023-04-24T06:07:35;1.90;;;1.80;;
7047;SDS011;3565;53.254;10.352;2023-04-24T06:10:05;1.90;;;1.80;;
7047;SDS011;3565;53.254;10.352;2023-04-24T06:15:12;1.80;;;1.70;;
7047;SDS011;3565;53.254;10.352;2023-04-24T06:17:41;1.80;;;1.70;;
7047;SDS011;3565;53.254;10.352;2023-04-24T06:20:10;2.20;;;2.00;;
7047;SDS011;3565;53.254;10.352;2023-04-24T06:25:16;1.80;;;1.70;;
7047;SDS011;3565;53.254;10.352;2023-04-24T06:27:46;1.93;;;1.70;;
7047;SDS011;3565;53.254;10.352;2023-04-24T06:30:24;1.93;;;1.60;;
7047;SDS011;3565;53.254;10.352;2023-04-24T06:35:31;1.60;;;1.50;;
7047;SDS011;3565;53.254;10.352;2023-04-24T06:38:00;1.80;;;1.70;;
7047;SDS011;3565;53.254;10.352;2023-04-24T06:43:06;1.83;;;1.73;;
7047;SDS011;3565;53.254;10.352;2023-04-24T06:45:34;1.63;;;1.53;;
7047;SDS011;3565;53.254;10.352;2023-04-24T06:48:13;1.50;;;1.40;;
7047;SDS011;3565;53.254;10.352;2023-04-24T06:53:20;1.70;;;1.60;;
7047;SDS011;3565;53.254;10.352;2023-04-24T06:55:49;1.70;;;1.60;;
7047;SDS011;3565;53.254;10.352;2023-04-24T06:58:18;3.00;;;1.50;;
7047;SDS011;3565;53.254;10.352;2023-04-24T07:03:24;1.60;;;1.50;;
7047;SDS011;3565;53.254;10.352;2023-04-24T07:05:53;2.40;;;1.70;;
7047;SDS011;3565;53.254;10.352;2023-04-24T07:08:32;2.47;;;1.43;;
7047;SDS011;3565;53.254;10.352;2023-04-24T07:11:02;1.63;;;1.53;;
7047;SDS011;3565;53.254;10.352;2023-04-24T07:16:12;1.77;;;1.40;;
7047;SDS011;3565;53.254;10.352;2023-04-24T07:18:40;2.90;;;1.50;;
7047;SDS011;3565;53.254;10.352;2023-04-24T07:21:19;1.50;;;1.40;;
7047;SDS011;3565;53.254;10.352;2023-04-24T07:26:25;1.40;;;1.30;;
7047;SDS011;3565;53.254;10.352;2023-04-24T07:28:55;1.50;;;1.40;;
7047;SDS011;3565;53.254;10.352;2023-04-24T07:31:34;1.43;;;1.30;;
7047;SDS011;3565;53.254;10.352;2023-04-24T07:34:04;1.80;;;1.70;;
7047;SDS011;3565;53.254;10.352;2023-04-24T07:36:33;1.73;;;1.60;;
7047;SDS011;3565;53.254;10.352;2023-04-24T07:39:02;1.60;;;1.50;;
7047;SDS011;3565;53.254;10.352;2023-04-24T07:44:09;1.43;;;1.33;;
7047;SDS011;3565;53.254;10.352;2023-04-24T07:46:38;1.53;;;1.40;;
7047;SDS011;3565;53.254;10.352;2023-04-24T07:49:16;1.60;;;1.50;;
7047;SDS011;3565;53.254;10.352;2023-04-24T07:54:22;2.53;;;1.70;;
7047;SDS011;3565;53.254;10.352;2023-04-24T07:56:51;3.57;;;1.80;;
7047;SDS011;3565;53.254;10.352;2023-04-24T07:59:33;1.80;;;1.70;;
7047;SDS011;3565;53.254;10.352;2023-04-24T08:02:02;1.73;;;1.63;;
7047;SDS011;3565;53.254;10.352;2023-04-24T08:04:32;1.70;;;1.60;;
7047;SDS011;3565;53.254;10.352;2023-04-24T08:07:01;2.37;;;1.70;;
7047;SDS011;3565;53.254;10.352;2023-04-24T08:12:07;1.90;;;1.80;;
7047;SDS011;3565;53.254;10.352;2023-04-24T08:17:14;2.20;;;2.00;;
7047;SDS011;3565;53.254;10.352;2023-04-24T08:19:44;2.10;;;1.87;;
7047;SDS011;3565;53.254;10.352;2023-04-24T08:22:24;2.50;;;2.03;;
7047;SDS011;3565;53.254;10.352;2023-04-24T08:27:30;2.70;;;2.10;;
7047;SDS011;3565;53.254;10.352;2023-04-24T08:29:58;3.33;;;2.27;;
7047;SDS011;3565;53.254;10.352;2023-04-24T08:32:28;2.60;;;2.40;;
7047;SDS011;3565;53.254;10.352;2023-04-24T08:37:34;2.73;;;2.53;;
7047;SDS011;3565;53.254;10.352;2023-04-24T08:40:05;3.33;;;2.60;;
7047;SDS011;3565;53.254;10.352;2023-04-24T08:45:13;2.90;;;2.70;;
7047;SDS011;3565;53.254;10.352;2023-04-24T08:47:43;3.00;;;2.80;;
7047;SDS011;3565;53.254;10.352;2023-04-24T08:50:21;2.50;;;2.30;;
7047;SDS011;3565;53.254;10.352;2023-04-24T08:55:28;2.90;;;2.70;;
7047;SDS011;3565;53.254;10.352;2023-04-24T08:58:01;3.33;;;2.70;;
7047;SDS011;3565;53.254;10.352;2023-04-24T09:00:31;3.50;;;3.20;;
7047;SDS011;3565;53.254;10.352;2023-04-24T09:03:00;3.57;;;2.70;;
7047;SDS011;3565;53.254;10.352;2023-04-24T09:05:30;3.57;;;3.27;;
7047;SDS011;3565;53.254;10.352;2023-04-24T09:08:00;4.50;;;4.10;;
7047;SDS011;3565;53.254;10.352;2023-04-24T09:13:08;6.90;;;5.60;;
7047;SDS011;3565;53.254;10.352;2023-04-24T09:15:39;5.63;;;5.10;;
7047;SDS011;3565;53.254;10.352;2023-04-24T09:18:18;6.20;;;5.60;;
7047;SDS011;3565;53.254;10.352;2023-04-24T09:20:58;6.17;;;5.57;;
7047;SDS011;3565;53.254;10.352;2023-04-24T09:23:39;5.70;;;5.10;;
7047;SDS011;3565;53.254;10.352;2023-04-24T09:26:09;5.60;;;5.10;;
7047;SDS011;3565;53.254;10.352;2023-04-24T09:28:49;7.40;;;5.30;;
7047;SDS011;3565;53.254;10.352;2023-04-24T09:33:56;6.33;;;5.67;;
7047;SDS011;3565;53.254;10.352;2023-04-24T09:36:27;5.83;;;5.33;;
7047;SDS011;3565;53.254;10.352;2023-04-24T09:38:59;5.73;;;5.13;;
7047;SDS011;3565;53.254;10.352;2023-04-24T09:41:28;5.83;;;5.23;;
7047;SDS011;3565;53.254;10.352;2023-04-24T09:43:57;6.60;;;5.80;;
7047;SDS011;3565;53.254;10.352;2023-04-24T09:46:32;5.67;;;5.17;;
7047;SDS011;3565;53.254;10.352;2023-04-24T09:51:44;6.10;;;5.50;;
7047;SDS011;3565;53.254;10.352;2023-04-24T09:56:51;7.07;;;6.37;;
7047;SDS011;3565;53.254;10.352;2023-04-24T09:59:22;7.57;;;5.97;;
7047;SDS011;3565;53.254;10.352;2023-04-24T10:04:28;8.00;;;6.80;;
7047;SDS011;3565;53.254;10.352;2023-04-24T10:06:57;7.30;;;6.60;;
7047;SDS011;3565;53.254;10.352;2023-04-24T10:09:29;8.30;;;7.07;;
7047;SDS011;3565;53.254;10.352;2023-04-24T10:11:59;8.10;;;6.67;;
7047;SDS011;3565;53.254;10.352;2023-04-24T10:14:29;6.93;;;6.23;;
7047;SDS011;3565;53.254;10.352;2023-04-24T10:16:58;6.90;;;6.20;;
7047;SDS011;3565;53.254;10.352;2023-04-24T10:19:28;7.03;;;6.33;;
7047;SDS011;3565;53.254;10.352;2023-04-24T10:21:58;8.10;;;6.97;;
7047;SDS011;3565;53.254;10.352;2023-04-24T10:24:38;7.50;;;6.37;;
7047;SDS011;3565;53.254;10.352;2023-04-24T10:27:07;7.87;;;6.47;;
7047;SDS011;3565;53.254;10.352;2023-04-24T10:29:46;9.90;;;7.13;;
7047;SDS011;3565;53.254;10.352;2023-04-24T10:34:55;7.13;;;6.43;;
7047;SDS011;3565;53.254;10.352;2023-04-24T10:37:24;7.47;;;6.73;;
7047;SDS011;3565;53.254;10.352;2023-04-24T10:39:54;7.10;;;5.87;;
7047;SDS011;3565;53.254;10.352;2023-04-24T10:42:33;7.77;;;6.43;;
7047;SDS011;3565;53.254;10.352;2023-04-24T10:45:05;9.03;;;7.30;;
7047;SDS011;3565;53.254;10.352;2023-04-24T10:47:40;6.40;;;5.80;;
7047;SDS011;3565;53.254;10.352;2023-04-24T10:50:18;8.73;;;7.33;;
7047;SDS011;3565;53.254;10.352;2023-04-24T10:55:40;8.90;;;6.07;;
7047;SDS011;3565;53.254;10.352;2023-04-24T10:58:11;6.47;;;5.40;;
7047;SDS011;3565;53.254;10.352;2023-04-24T11:03:25;7.00;;;6.30;;
7047;SDS011;3565;53.254;10.352;2023-04-24T11:05:59;7.17;;;6.47;;
7047;SDS011;3565;53.254;10.352;2023-04-24T11:08:30;9.10;;;6.73;;
7047;SDS011;3565;53.254;10.352;2023-04-24T11:11:03;7.10;;;6.40;;
7047;SDS011;3565;53.254;10.352;2023-04-24T11:16:52;7.13;;;6.43;;
7047;SDS011;3565;53.254;10.352;2023-04-24T11:19:22;6.90;;;5.57;;
7047;SDS011;3565;53.254;10.352;2023-04-24T11:22:01;7.13;;;4.90;;
7047;SDS011;3565;53.254;10.352;2023-04-24T11:24:32;5.30;;;4.80;;
7047;SDS011;3565;53.254;10.352;2023-04-24T11:27:06;4.47;;;4.07;;
7047;SDS011;3565;53.254;10.352;2023-04-24T11:29:41;4.40;;;4.00;;
7047;SDS011;3565;53.254;10.352;2023-04-24T11:34:53;3.83;;;3.50;;
7047;SDS011;3565;53.254;10.352;2023-04-24T11:37:25;4.10;;;3.70;;
7047;SDS011;3565;53.254;10.352;2023-04-24T11:39:56;4.83;;;4.00;;
7047;SDS011;3565;53.254;10.352;2023-04-24T11:42:35;5.00;;;4.13;;
7047;SDS011;3565;53.254;10.352;2023-04-24T11:47:45;5.93;;;4.23;;
7047;SDS011;3565;53.254;10.352;2023-04-24T11:52:51;5.43;;;4.67;;
7047;SDS011;3565;53.254;10.352;2023-04-24T11:55:24;5.77;;;4.27;;
7047;SDS011;3565;53.254;10.352;2023-04-24T11:57:55;5.33;;;4.77;;
7047;SDS011;3565;53.254;10.352;2023-04-24T12:00:34;5.20;;;4.70;;
7047;SDS011;3565;53.254;10.352;2023-04-24T12:03:05;6.33;;;4.63;;
7047;SDS011;3565;53.254;10.352;2023-04-24T12:05:35;6.50;;;5.47;;
7047;SDS011;3565;53.254;10.352;2023-04-24T12:08:15;5.50;;;5.00;;
7047;SDS011;3565;53.254;10.352;2023-04-24T12:13:32;4.33;;;3.93;;
7047;SDS011;3565;53.254;10.352;2023-04-24T12:16:02;5.43;;;4.57;;
7047;SDS011;3565;53.254;10.352;2023-04-24T12:18:32;4.17;;;3.77;;
7047;SDS011;3565;53.254;10.352;2023-04-24T12:21:20;4.10;;;3.70;;
7047;SDS011;3565;53.254;10.352;2023-04-24T12:26:28;4.50;;;4.10;;
7047;SDS011;3565;53.254;10.352;2023-04-24T12:29:01;4.23;;;3.90;;
7047;SDS011;3565;53.254;10.352;2023-04-24T12:31:29;4.43;;;4.03;;
7047;SDS011;3565;53.254;10.352;2023-04-24T12:33:58;4.30;;;3.90;;
7047;SDS011;3565;53.254;10.352;2023-04-24T12:36:27;3.83;;;3.53;;
7047;SDS011;3565;53.254;10.352;2023-04-24T12:41:34;4.40;;;4.00;;
7047;SDS011;3565;53.254;10.352;2023-04-24T12:44:03;4.30;;;3.90;;
7047;SDS011;3565;53.254;10.352;2023-04-24T12:49:11;4.00;;;3.70;;
7047;SDS011;3565;53.254;10.352;2023-04-24T12:54:17;4.13;;;3.83;;
7047;SDS011;3565;53.254;10.352;2023-04-24T12:56:47;4.10;;;3.70;;
7047;SDS011;3565;53.254;10.352;2023-04-24T12:59:26;3.70;;;3.40;;
7047;SDS011;3565;53.254;10.352;2023-04-24T13:04:32;4.00;;;3.70;;
7047;SDS011;3565;53.254;10.352;2023-04-24T13:07:06;5.23;;;3.80;;
7047;SDS011;3565;53.254;10.352;2023-04-24T13:09:49;4.33;;;3.93;;
7047;SDS011;3565;53.254;10.352;2023-04-24T13:12:24;4.47;;;4.07;;
7047;SDS011;3565;53.254;10.352;2023-04-24T13:17:30;4.27;;;3.87;;
7047;SDS011;3565;53.254;10.352;2023-04-24T13:20:00;4.00;;;3.70;;
7047;SDS011;3565;53.254;10.352;2023-04-24T13:22:30;3.77;;;3.47;;
7047;SDS011;3565;53.254;10.352;2023-04-24T13:24:58;3.70;;;3.40;;
7047;SDS011;3565;53.254;10.352;2023-04-24T13:27:38;3.03;;;2.83;;
7047;SDS011;3565;53.254;10.352;2023-04-24T13:30:09;3.53;;;3.17;;
7047;SDS011;3565;53.254;10.352;2023-04-24T13:32:39;3.70;;;3.40;;
7047;SDS011;3565;53.254;10.352;2023-04-24T13:37:46;3.87;;;3.00;;
7047;SDS011;3565;53.254;10.352;2023-04-24T13:42:52;2.80;;;2.60;;
7047;SDS011;3565;53.254;10.352;2023-04-24T13:45:21;3.60;;;2.67;;
7047;SDS011;3565;53.254;10.352;2023-04-24T13:47:51;3.13;;;2.90;;
7047;SDS011;3565;53.254;10.352;2023-04-24T13:50:29;3.30;;;3.00;;
7047;SDS011;3565;53.254;10.352;2023-04-24T13:55:36;3.30;;;3.10;;
7047;SDS011;3565;53.254;10.352;2023-04-24T13:58:05;2.93;;;2.73;;
7047;SDS011;3565;53.254;10.352;2023-04-24T14:00:44;3.20;;;2.80;;
7047;SDS011;3565;53.254;10.352;2023-04-24T14:05:50;2.80;;;2.60;;
7047;SDS011;3565;53.254;10.352;2023-04-24T14:08:19;3.00;;;2.80;;
7047;SDS011;3565;53.254;10.352;2023-04-24T14:10:48;3.47;;;2.90;;
7047;SDS011;3565;53.254;10.352;2023-04-24T14:15:55;3.07;;;2.77;;
7047;SDS011;3565;53.254;10.352;2023-04-24T14:18:24;3.13;;;2.83;;
7047;SDS011;3565;53.254;10.352;2023-04-24T14:23:30;3.40;;;3.10;;
7047;SDS011;3565;53.254;10.352;2023-04-24T14:28:40;5.73;;;2.90;;
7047;SDS011;3565;53.254;10.352;2023-04-24T14:33:46;3.70;;;3.40;;
7047;SDS011;3565;53.254;10.352;2023-04-24T14:36:15;3.77;;;3.40;;
7047;SDS011;3565;53.254;10.352;2023-04-24T14:38:53;3.60;;;3.30;;
7047;SDS011;3565;53.254;10.352;2023-04-24T14:41:23;3.83;;;2.93;;
7047;SDS011;3565;53.254;10.352;2023-04-24T14:43:52;2.90;;;2.70;;
7047;SDS011;3565;53.254;10.352;2023-04-24T14:46:33;2.53;;;2.33;;
7047;SDS011;3565;53.254;10.352;2023-04-24T14:49:02;2.13;;;1.93;;
7047;SDS011;3565;53.254;10.352;2023-04-24T14:51:31;1.60;;;1.50;;
7047;SDS011;3565;53.254;10.352;2023-04-24T14:56:37;1.50;;;1.40;;
7047;SDS011;3565;53.254;10.352;2023-04-24T14:59:09;1.63;;;1.50;;
7047;SDS011;3565;53.254;10.352;2023-04-24T15:01:49;1.60;;;1.50;;
7047;SDS011;3565;53.254;10.352;2023-04-24T15:06:56;1.77;;;1.67;;
7047;SDS011;3565;53.254;10.352;2023-04-24T15:09:25;1.70;;;1.60;;
7047;SDS011;3565;53.254;10.352;2023-04-24T15:14:33;2.00;;;1.80;;
7047;SDS011;3565;53.254;10.352;2023-04-24T15:17:02;1.80;;;1.70;;
7047;SDS011;3565;53.254;10.352;2023-04-24T15:19:31;1.70;;;1.60;;
7047;SDS011;3565;53.254;10.352;2023-04-24T15:22:00;2.00;;;1.90;;
7047;SDS011;3565;53.254;10.352;2023-04-24T15:24:29;3.30;;;1.83;;
7047;SDS011;3565;53.254;10.352;2023-04-24T15:26:59;2.00;;;1.90;;
7047;SDS011;3565;53.254;10.352;2023-04-24T15:29:37;1.90;;;1.80;;
7047;SDS011;3565;53.254;10.352;2023-04-24T15:34:44;2.00;;;1.90;;
7047;SDS011;3565;53.254;10.352;2023-04-24T15:37:13;2.30;;;2.20;;
7047;SDS011;3565;53.254;10.352;2023-04-24T15:39:51;3.07;;;2.27;;
7047;SDS011;3565;53.254;10.352;2023-04-24T15:42:20;2.70;;;2.50;;
7047;SDS011;3565;53.254;10.352;2023-04-24T15:44:49;2.90;;;2.70;;
7047;SDS011;3565;53.254;10.352;2023-04-24T15:47:29;2.80;;;2.60;;
7047;SDS011;3565;53.254;10.352;2023-04-24T15:49:59;2.87;;;2.67;;
7047;SDS011;3565;53.254;10.352;2023-04-24T15:52:28;3.90;;;2.90;;
7047;SDS011;3565;53.254;10.352;2023-04-24T15:57:34;3.20;;;2.90;;
7047;SDS011;3565;53.254;10.352;2023-04-24T16:00:04;3.00;;;2.70;;
7047;SDS011;3565;53.254;10.352;2023-04-24T16:02:50;4.00;;;3.60;;
7047;SDS011;3565;53.254;10.352;2023-04-24T16:05:19;4.77;;;3.60;;
7047;SDS011;3565;53.254;10.352;2023-04-24T16:07:49;4.27;;;3.80;;
7047;SDS011;3565;53.254;10.352;2023-04-24T16:10:18;5.80;;;4.17;;
7047;SDS011;3565;53.254;10.352;2023-04-24T16:12:48;7.40;;;5.30;;
7047;SDS011;3565;53.254;10.352;2023-04-24T16:15:20;6.80;;;5.50;;
7047;SDS011;3565;53.254;10.352;2023-04-24T16:20:27;9.20;;;5.87;;
7047;SDS011;3565;53.254;10.352;2023-04-24T16:22:58;5.70;;;5.10;;
7047;SDS011;3565;53.254;10.352;2023-04-24T16:25:27;4.67;;;4.20;;
7047;SDS011;3565;53.254;10.352;2023-04-24T16:27:56;4.30;;;3.60;;
7047;SDS011;3565;53.254;10.352;2023-04-24T16:30:38;4.90;;;4.07;;
7047;SDS011;3565;53.254;10.352;2023-04-24T16:33:07;3.60;;;3.30;;
7047;SDS011;3565;53.254;10.352;2023-04-24T16:35:37;4.20;;;3.80;;
7047;SDS011;3565;53.254;10.352;2023-04-24T16:40:43;4.77;;;3.40;;
7047;SDS011;3565;53.254;10.352;2023-04-24T16:45:49;5.10;;;4.00;;
7047;SDS011;3565;53.254;10.352;2023-04-24T16:50:55;5.17;;;4.10;;
7047;SDS011;3565;53.254;10.352;2023-04-24T16:53:24;4.30;;;3.90;;
7047;SDS011;3565;53.254;10.352;2023-04-24T16:55:54;4.37;;;3.97;;
7047;SDS011;3565;53.254;10.352;2023-04-24T16:58:23;6.27;;;4.27;;
7047;SDS011;3565;53.254;10.352;2023-04-24T17:00:52;5.10;;;4.10;;
7047;SDS011;3565;53.254;10.352;2023-04-24T17:03:31;5.63;;;4.57;;
7047;SDS011;3565;53.254;10.352;2023-04-24T17:06:00;6.60;;;5.07;;
7047;SDS011;3565;53.254;10.352;2023-04-24T17:08:29;5.23;;;4.60;;
7047;SDS011;3565;53.254;10.352;2023-04-24T17:10:59;5.10;;;4.50;;
7047;SDS011;3565;53.254;10.352;2023-04-24T17:13:28;6.07;;;4.70;;
7047;SDS011;3565;53.254;10.352;2023-04-24T17:18:36;6.40;;;4.50;;
7047;SDS011;3565;53.254;10.352;2023-04-24T17:21:05;7.57;;;5.10;;
7047;SDS011;3565;53.254;10.352;2023-04-24T17:23:45;7.10;;;4.80;;
7047;SDS011;3565;53.254;10.352;2023-04-24T17:26:14;6.63;;;5.30;;
7047;SDS011;3565;53.254;10.352;2023-04-24T17:28:54;6.53;;;5.07;;
7047;SDS011;3565;53.254;10.352;2023-04-24T17:31:23;6.00;;;5.10;;
7047;SDS011;3565;53.254;10.352;2023-04-24T17:36:31;7.40;;;5.70;;
7047;SDS011;3565;53.254;10.352;2023-04-24T17:39:00;8.93;;;5.87;;
7047;SDS011;3565;53.254;10.352;2023-04-24T17:41:29;6.77;;;5.97;;
7047;SDS011;3565;53.254;10.352;2023-04-24T17:46:37;6.40;;;5.57;;
7047;SDS011;3565;53.254;10.352;2023-04-24T17:49:08;10.33;;;6.60;;
7047;SDS011;3565;53.254;10.352;2023-04-24T17:51:37;9.23;;;6.67;;
7047;SDS011;3565;53.254;10.352;2023-04-24T17:56:45;11.63;;;8.40;;
7047;SDS011;3565;53.254;10.352;2023-04-24T17:59:14;10.10;;;7.33;;
7047;SDS011;3565;53.254;10.352;2023-04-24T18:01:44;9.13;;;6.77;;
7047;SDS011;3565;53.254;10.352;2023-04-24T18:04:13;8.70;;;7.20;;
7047;SDS011;3565;53.254;10.352;2023-04-24T18:09:20;10.93;;;7.27;;
7047;SDS011;3565;53.254;10.352;2023-04-24T18:14:29;10.23;;;7.37;;
7047;SDS011;3565;53.254;10.352;2023-04-24T18:16:58;12.53;;;7.90;;
7047;SDS011;3565;53.254;10.352;2023-04-24T18:19:27;9.43;;;7.13;;
7047;SDS011;3565;53.254;10.352;2023-04-24T18:22:05;9.93;;;7.10;;
7047;SDS011;3565;53.254;10.352;2023-04-24T18:27:12;12.00;;;7.60;;
7047;SDS011;3565;53.254;10.352;2023-04-24T18:29:41;12.63;;;8.27;;
7047;SDS011;3565;53.254;10.352;2023-04-24T18:32:10;11.60;;;7.00;;
7047;SDS011;3565;53.254;10.352;2023-04-24T18:34:49;13.63;;;7.67;;
7047;SDS011;3565;53.254;10.352;2023-04-24T18:37:18;10.57;;;7.83;;
7047;SDS011;3565;53.254;10.352;2023-04-24T18:39:47;10.93;;;7.43;;
7047;SDS011;3565;53.254;10.352;2023-04-24T18:42:26;11.90;;;8.30;;
7047;SDS011;3565;53.254;10.352;2023-04-24T18:47:32;9.90;;;7.97;;
7047;SDS011;3565;53.254;10.352;2023-04-24T18:50:01;9.53;;;7.87;;
7047;SDS011;3565;53.254;10.352;2023-04-24T18:55:08;11.37;;;8.00;;
7047;SDS011;3565;53.254;10.352;2023-04-24T18:57:37;10.17;;;8.30;;
7047;SDS011;3565;53.254;10.352;2023-04-24T19:00:08;10.70;;;8.13;;
7047;SDS011;3565;53.254;10.352;2023-04-24T19:02:57;8.40;;;7.50;;
7047;SDS011;3565;53.254;10.352;2023-04-24T19:05:26;9.03;;;6.87;;
7047;SDS011;3565;53.254;10.352;2023-04-24T19:07:55;9.17;;;6.03;;
7047;SDS011;3565;53.254;10.352;2023-04-24T19:10:33;6.63;;;5.50;;
7047;SDS011;3565;53.254;10.352;2023-04-24T19:13:02;9.53;;;5.60;;
7047;SDS011;3565;53.254;10.352;2023-04-24T19:15:31;7.03;;;5.43;;